Time;durP1;ratioP1;P1;durP2;ratioP2;P2;SDS_P1;SDS_P2;PMS_P1;PMS_P2;Temp;Humidity;BMP_temperature;BMP_pressure;BME280_temperature;BME280_humidity;BME280_pressure;Samples;Min_cycle;Max_cycle;Signal;HPM_P1;HPM_P2
2022/03/31 00:00:13;;;;;;;1.40;1.10;;;;;;;;;;5051349;28;20513;-70
2022/03/31 00:02:40;;;;;;;2.33;1.10;;;;;;;;;;5051736;28;20091;-70
2022/03/31 00:05:06;;;;;;;4.88;1.20;;;;;;;;;;5051605;28;20060;-70
2022/03/31 00:07:33;;;;;;;1.38;1.00;;;;;;;;;;5051574;28;20072;-70
2022/03/31 00:10:00;;;;;;;3.10;1.27;;;;;;;;;;5050422;28;20072;-70
2022/03/31 00:12:26;;;;;;;1.73;1.00;;;;;;;;;;5050084;28;20414;-70
2022/03/31 00:14:53;;;;;;;2.88;1.13;;;;;;;;;;5051459;28;20485;-70
2022/03/31 00:17:19;;;;;;;2.53;1.27;;;;;;;;;;5037736;28;20088;-70
2022/03/31 00:19:46;;;;;;;1.73;1.20;;;;;;;;;;5050351;28;20131;-70
2022/03/31 00:22:17;;;;;;;1.20;1.10;;;;;;;;;;5051549;28;20076;-70
2022/03/31 00:24:43;;;;;;;2.67;1.30;;;;;;;;;;5051420;28;20386;-70
2022/03/31 00:27:09;;;;;;;2.45;1.27;;;;;;;;;;5051496;28;20049;-70
2022/03/31 00:29:36;;;;;;;1.52;0.90;;;;;;;;;;5051286;28;20049;-70
2022/03/31 00:32:03;;;;;;;2.95;1.30;;;;;;;;;;5051122;28;20045;-70
2022/03/31 00:34:30;;;;;;;2.15;1.20;;;;;;;;;;5054023;28;20063;-70
2022/03/31 00:36:57;;;;;;;1.20;1.10;;;;;;;;;;5055000;28;20520;-70
2022/03/31 00:39:29;;;;;;;3.13;1.45;;;;;;;;;;5053893;28;20497;-70
2022/03/31 00:41:56;;;;;;;1.30;0.98;;;;;;;;;;5055240;28;20183;-70
2022/03/31 00:44:22;;;;;;;2.63;1.08;;;;;;;;;;5054943;28;20069;-70
2022/03/31 00:46:50;;;;;;;3.25;0.82;;;;;;;;;;5055150;28;20080;-70
2022/03/31 00:49:17;;;;;;;2.65;1.25;;;;;;;;;;5053568;28;20072;-70
2022/03/31 00:51:43;;;;;;;1.92;1.00;;;;;;;;;;5055010;28;20084;-70
2022/03/31 00:54:10;;;;;;;2.03;1.20;;;;;;;;;;5054886;28;20135;-70
2022/03/31 00:56:37;;;;;;;3.35;1.00;;;;;;;;;;5053728;28;20463;-70
2022/03/31 00:59:05;;;;;;;2.22;1.13;;;;;;;;;;5054645;28;20045;-70
2022/03/31 01:01:32;;;;;;;1.95;0.95;;;;;;;;;;5054615;28;20508;-70
2022/03/31 01:04:00;;;;;;;2.13;1.00;;;;;;;;;;5054446;28;20087;-70
2022/03/31 01:06:26;;;;;;;2.05;0.88;;;;;;;;;;5053265;28;20067;-70
2022/03/31 01:08:53;;;;;;;1.52;1.20;;;;;;;;;;5054754;28;20076;-70
2022/03/31 01:11:20;;;;;;;2.75;1.10;;;;;;;;;;5054621;28;20436;-70
2022/03/31 01:13:47;;;;;;;1.60;1.08;;;;;;;;;;5053248;28;20049;-70
2022/03/31 01:16:14;;;;;;;2.47;1.20;;;;;;;;;;5054586;28;20045;-70
2022/03/31 01:18:40;;;;;;;1.63;1.00;;;;;;;;;;5053354;28;20143;-70
2022/03/31 01:21:06;;;;;;;1.50;0.98;;;;;;;;;;5047675;28;20460;-70
2022/03/31 01:23:33;;;;;;;2.15;1.20;;;;;;;;;;5054151;28;20167;-71
2022/03/31 01:26:00;;;;;;;2.30;1.10;;;;;;;;;;5054130;28;20053;-70
2022/03/31 01:28:26;;;;;;;4.68;1.55;;;;;;;;;;5054387;28;20089;-70
2022/03/31 01:30:53;;;;;;;2.85;1.15;;;;;;;;;;5053981;28;20472;-70
2022/03/31 01:33:19;;;;;;;3.65;1.52;;;;;;;;;;5054007;28;20045;-70
2022/03/31 01:35:45;;;;;;;3.60;1.63;;;;;;;;;;5053861;28;20049;-71
2022/03/31 01:38:12;;;;;;;2.47;1.77;;;;;;;;;;5053809;28;20092;-71
2022/03/31 01:40:39;;;;;;;2.58;2.20;;;;;;;;;;5052511;28;20049;-71
2022/03/31 01:43:05;;;;;;;4.00;2.28;;;;;;;;;;5054038;28;20068;-71
2022/03/31 01:45:32;;;;;;;2.75;1.77;;;;;;;;;;5052777;28;20044;-71
2022/03/31 01:48:02;;;;;;;3.03;2.17;;;;;;;;;;5052799;28;20100;-71
2022/03/31 01:50:28;;;;;;;3.05;1.85;;;;;;;;;;5053899;28;20465;-70
2022/03/31 01:52:54;;;;;;;3.35;2.00;;;;;;;;;;5053441;28;20072;-71
2022/03/31 01:55:21;;;;;;;4.80;2.08;;;;;;;;;;5053506;28;20524;-71
2022/03/31 01:57:47;;;;;;;4.38;2.00;;;;;;;;;;5053475;28;20080;-71
2022/03/31 02:00:14;;;;;;;3.42;2.50;;;;;;;;;;5053751;28;20080;-71
2022/03/31 02:02:41;;;;;;;3.00;2.08;;;;;;;;;;5052429;28;20053;-71
2022/03/31 02:05:08;;;;;;;4.10;2.37;;;;;;;;;;5053609;28;20496;-70
2022/03/31 02:07:36;;;;;;;3.95;2.60;;;;;;;;;;5053509;28;20680;-71
2022/03/31 02:10:03;;;;;;;3.67;2.35;;;;;;;;;;5052307;28;20124;-71
2022/03/31 02:12:30;;;;;;;3.88;2.72;;;;;;;;;;5053210;28;20573;-70
2022/03/31 02:14:56;;;;;;;4.68;2.50;;;;;;;;;;5053391;28;20132;-71
2022/03/31 02:17:22;;;;;;;3.10;2.80;;;;;;;;;;5053118;28;20083;-70
2022/03/31 02:19:49;;;;;;;3.42;3.10;;;;;;;;;;5053318;28;20126;-71
2022/03/31 02:22:15;;;;;;;4.93;3.40;;;;;;;;;;5053071;28;20523;-71
2022/03/31 02:24:42;;;;;;;4.13;3.13;;;;;;;;;;5053210;28;20092;-70
2022/03/31 02:27:08;;;;;;;3.42;3.00;;;;;;;;;;5052893;28;20135;-71
2022/03/31 02:29:34;;;;;;;5.43;3.05;;;;;;;;;;5053110;28;20459;-71
2022/03/31 02:32:01;;;;;;;4.68;2.78;;;;;;;;;;5052785;28;20045;-70
2022/03/31 02:34:28;;;;;;;6.43;3.88;;;;;;;;;;5052830;28;20052;-70
2022/03/31 02:36:54;;;;;;;5.00;4.47;;;;;;;;;;5053300;28;20084;-70
2022/03/31 02:39:21;;;;;;;5.68;4.82;;;;;;;;;;5052700;28;20493;-70
2022/03/31 02:41:47;;;;;;;6.85;5.30;;;;;;;;;;5051661;28;20080;-70
2022/03/31 02:44:15;;;;;;;7.20;6.50;;;;;;;;;;5052536;28;20087;-70
2022/03/31 02:46:42;;;;;;;6.90;5.78;;;;;;;;;;5052936;28;20497;-71
2022/03/31 02:49:09;;;;;;;7.10;6.40;;;;;;;;;;5052837;28;20065;-71
2022/03/31 02:51:35;;;;;;;9.45;7.38;;;;;;;;;;5051540;28;20049;-71
2022/03/31 02:56:47;;;;;;;9.15;8.18;;;;;;;;;;5052405;28;20139;-71
2022/03/31 02:59:13;;;;;;;8.13;7.10;;;;;;;;;;5052575;28;20087;-71
2022/03/31 03:01:43;;;;;;;9.02;7.38;;;;;;;;;;5052492;28;20464;-70
2022/03/31 03:04:10;;;;;;;8.70;7.70;;;;;;;;;;5052460;28;20049;-70
2022/03/31 03:06:36;;;;;;;11.25;7.50;;;;;;;;;;5052551;28;20080;-71
2022/03/31 03:09:03;;;;;;;9.40;7.93;;;;;;;;;;5052122;28;20091;-70
2022/03/31 03:11:30;;;;;;;9.83;7.70;;;;;;;;;;5052412;28;20424;-70
2022/03/31 03:13:56;;;;;;;8.13;7.25;;;;;;;;;;5052252;28;20133;-70
2022/03/31 03:16:25;;;;;;;9.77;7.63;;;;;;;;;;5051923;28;20103;-70
2022/03/31 03:18:52;;;;;;;9.85;7.50;;;;;;;;;;5050831;28;20048;-70
2022/03/31 03:21:19;;;;;;;11.77;7.35;;;;;;;;;;5051909;28;20044;-70
2022/03/31 03:23:46;;;;;;;9.13;7.00;;;;;;;;;;5052208;28;20089;-70
2022/03/31 03:26:12;;;;;;;9.48;7.05;;;;;;;;;;5051901;28;20062;-70
2022/03/31 03:28:39;;;;;;;8.40;6.63;;;;;;;;;;5052079;28;20084;-70
2022/03/31 03:31:06;;;;;;;9.82;6.80;;;;;;;;;;5050967;28;20080;-70
2022/03/31 03:33:33;;;;;;;7.88;6.40;;;;;;;;;;5052023;28;20049;-70
2022/03/31 03:36:00;;;;;;;9.88;6.80;;;;;;;;;;5051566;28;20562;-70
2022/03/31 03:38:27;;;;;;;9.40;6.90;;;;;;;;;;5051953;28;20110;-70
2022/03/31 03:40:54;;;;;;;9.50;6.50;;;;;;;;;;5051949;28;20142;-70
2022/03/31 03:43:21;;;;;;;7.30;6.43;;;;;;;;;;5050712;28;20056;-70
2022/03/31 03:45:47;;;;;;;8.43;6.65;;;;;;;;;;5051804;28;20045;-71
2022/03/31 03:48:14;;;;;;;7.47;5.65;;;;;;;;;;5051616;28;20481;-70
2022/03/31 03:50:40;;;;;;;8.70;5.55;;;;;;;;;;5051764;28;20084;-70
2022/03/31 03:53:07;;;;;;;7.78;5.95;;;;;;;;;;5051439;28;20485;-70
2022/03/31 03:55:35;;;;;;;6.70;5.45;;;;;;;;;;5051440;28;20140;-70
2022/03/31 03:58:02;;;;;;;7.05;5.28;;;;;;;;;;5050549;28;20050;-70
2022/03/31 04:00:29;;;;;;;6.28;5.28;;;;;;;;;;5051502;28;20501;-70
2022/03/31 04:02:56;;;;;;;6.90;5.13;;;;;;;;;;5051714;28;20045;-70
2022/03/31 04:05:23;;;;;;;5.60;4.77;;;;;;;;;;5051616;28;20106;-70
2022/03/31 04:07:49;;;;;;;6.60;4.97;;;;;;;;;;5051568;28;20305;-70
2022/03/31 04:10:16;;;;;;;7.47;4.85;;;;;;;;;;5054086;28;20120;-70
2022/03/31 04:12:42;;;;;;;8.50;5.43;;;;;;;;;;5055557;28;20080;-70
2022/03/31 04:15:09;;;;;;;4.85;4.28;;;;;;;;;;5055878;28;20061;-70
2022/03/31 04:17:36;;;;;;;5.93;4.93;;;;;;;;;;5055655;28;20131;-71
2022/03/31 04:20:03;;;;;;;4.90;4.40;;;;;;;;;;5055566;28;20089;-70
2022/03/31 04:22:33;;;;;;;7.97;3.97;;;;;;;;;;5055654;28;20493;-71
2022/03/31 04:25:00;;;;;;;6.45;4.50;;;;;;;;;;5054149;28;20084;-70
2022/03/31 04:27:27;;;;;;;6.60;4.47;;;;;;;;;;5055606;28;20095;-70
2022/03/31 04:29:53;;;;;;;5.30;4.70;;;;;;;;;;5055088;28;20088;-70
2022/03/31 04:32:20;;;;;;;8.95;4.70;;;;;;;;;;5055081;28;20077;-70
2022/03/31 04:34:46;;;;;;;5.13;4.20;;;;;;;;;;5053896;28;20096;-70
2022/03/31 04:37:13;;;;;;;7.03;4.50;;;;;;;;;;5055044;28;20087;-70
2022/03/31 04:39:39;;;;;;;4.80;3.88;;;;;;;;;;5055166;28;20099;-71
2022/03/31 04:42:08;;;;;;;6.22;4.13;;;;;;;;;;5054946;28;20492;-71
2022/03/31 04:44:34;;;;;;;6.20;3.13;;;;;;;;;;5053873;28;20167;-71
2022/03/31 04:47:00;;;;;;;5.18;4.18;;;;;;;;;;5055132;28;20077;-70
2022/03/31 04:49:27;;;;;;;4.68;3.90;;;;;;;;;;5054853;28;20092;-70
2022/03/31 04:51:53;;;;;;;6.70;3.85;;;;;;;;;;5054934;28;20081;-70
2022/03/31 04:54:20;;;;;;;4.63;3.58;;;;;;;;;;5054933;28;20064;-70
2022/03/31 04:56:46;;;;;;;6.15;4.00;;;;;;;;;;5054760;28;20088;-70
2022/03/31 04:59:12;;;;;;;4.88;3.60;;;;;;;;;;5054839;28;20085;-70
2022/03/31 05:01:39;;;;;;;5.22;3.72;;;;;;;;;;5053716;28;20091;-70
2022/03/31 05:04:05;;;;;;;5.88;3.95;;;;;;;;;;5054821;28;20468;-70
2022/03/31 05:06:32;;;;;;;9.30;4.05;;;;;;;;;;5054411;28;20500;-70
2022/03/31 05:08:58;;;;;;;6.65;4.22;;;;;;;;;;5054476;28;20091;-71
2022/03/31 05:11:25;;;;;;;8.73;3.90;;;;;;;;;;5054554;28;20091;-70
2022/03/31 05:13:51;;;;;;;5.18;3.90;;;;;;;;;;5054377;28;20045;-70
2022/03/31 05:16:18;;;;;;;5.05;4.18;;;;;;;;;;5054481;28;20045;-70
2022/03/31 05:18:45;;;;;;;5.70;4.30;;;;;;;;;;5054652;28;20049;-70
2022/03/31 05:21:12;;;;;;;5.45;4.07;;;;;;;;;;5051626;28;20104;-70
2022/03/31 05:23:38;;;;;;;6.47;4.43;;;;;;;;;;5042179;28;20049;-70
2022/03/31 05:26:05;;;;;;;5.90;4.07;;;;;;;;;;5054400;28;20057;-70
2022/03/31 05:28:31;;;;;;;4.68;3.92;;;;;;;;;;5053847;28;20536;-70
2022/03/31 05:30:58;;;;;;;7.35;4.80;;;;;;;;;;5054155;28;20077;-70
2022/03/31 05:33:26;;;;;;;;;;;;;;;;;;5040152;28;20050;-70
2022/03/31 05:35:52;;;;;;;5.38;4.25;;;;;;;;;;5035279;28;19921;-70
2022/03/31 05:38:18;;;;;;;6.68;4.50;;;;;;;;;;5033567;28;20509;-69
2022/03/31 05:40:46;;;;;;;5.55;4.45;;;;;;;;;;5032473;28;20088;-69
2022/03/31 05:43:13;;;;;;;6.45;4.70;;;;;;;;;;5033417;28;20057;-70
2022/03/31 05:45:40;;;;;;;5.18;4.68;;;;;;;;;;5033669;28;20049;-69
2022/03/31 05:48:07;;;;;;;6.55;4.57;;;;;;;;;;5036699;28;20057;-70
2022/03/31 05:50:34;;;;;;;6.40;4.70;;;;;;;;;;5033563;28;20053;-70
2022/03/31 05:53:00;;;;;;;6.80;5.25;;;;;;;;;;5032486;28;20088;-70
2022/03/31 05:55:28;;;;;;;4.60;4.05;;;;;;;;;;5051923;28;20084;-70
2022/03/31 05:57:54;;;;;;;5.90;4.40;;;;;;;;;;5043508;28;20073;-70
2022/03/31 06:00:21;;;;;;;7.85;4.68;;;;;;;;;;5049610;28;20079;-71
2022/03/31 06:02:48;;;;;;;7.95;4.38;;;;;;;;;;5036529;28;20081;-71
2022/03/31 06:05:17;;;;;;;6.60;4.72;;;;;;;;;;5034352;28;20075;-68
2022/03/31 06:07:44;;;;;;;6.75;4.75;;;;;;;;;;5053838;28;20053;-70
2022/03/31 06:10:10;;;;;;;7.00;4.70;;;;;;;;;;5037838;28;20045;-69
2022/03/31 06:12:37;;;;;;;5.35;4.40;;;;;;;;;;5043434;28;20540;-69
2022/03/31 06:15:06;;;;;;;5.50;4.47;;;;;;;;;;5053350;28;20049;-69
2022/03/31 06:17:33;;;;;;;4.75;4.22;;;;;;;;;;5053134;28;20057;-70
2022/03/31 06:19:59;;;;;;;6.78;5.07;;;;;;;;;;5053141;28;20554;-72
2022/03/31 06:22:26;;;;;;;5.85;4.47;;;;;;;;;;5053157;28;20080;-72
2022/03/31 06:24:52;;;;;;;7.40;4.43;;;;;;;;;;5038422;28;20068;-71
2022/03/31 06:27:19;;;;;;;5.13;4.63;;;;;;;;;;5053217;28;20072;-71
2022/03/31 06:29:45;;;;;;;7.05;4.25;;;;;;;;;;5051579;28;20500;-69
2022/03/31 06:32:15;;;;;;;5.65;4.72;;;;;;;;;;5052421;28;20073;-70
2022/03/31 06:34:42;;;;;;;6.53;4.80;;;;;;;;;;5052850;28;20095;-71
2022/03/31 06:37:09;;;;;;;7.22;5.35;;;;;;;;;;5038183;28;20104;-70
2022/03/31 06:39:40;;;;;;;5.65;4.75;;;;;;;;;;5050157;28;20057;-70
2022/03/31 06:42:07;;;;;;;5.28;4.25;;;;;;;;;;5031522;28;20085;-70
2022/03/31 06:44:33;;;;;;;4.85;4.35;;;;;;;;;;5032274;28;20088;-70
2022/03/31 06:47:00;;;;;;;6.78;4.45;;;;;;;;;;5032677;28;20049;-70
2022/03/31 06:49:26;;;;;;;7.07;4.07;;;;;;;;;;5032751;28;20049;-70
2022/03/31 06:51:52;;;;;;;4.72;4.30;;;;;;;;;;5050148;28;20069;-70
2022/03/31 06:54:19;;;;;;;4.43;4.00;;;;;;;;;;5052429;28;20091;-70
2022/03/31 06:56:47;;;;;;;6.43;4.32;;;;;;;;;;5052366;28;20076;-70
2022/03/31 06:59:13;;;;;;;5.85;3.80;;;;;;;;;;5052302;28;20084;-70
2022/03/31 07:01:40;;;;;;;6.50;3.90;;;;;;;;;;5052500;28;20084;-70
2022/03/31 07:04:07;;;;;;;4.45;3.63;;;;;;;;;;5052400;28;20132;-70
2022/03/31 07:06:34;;;;;;;5.80;3.60;;;;;;;;;;5052474;28;20091;-70
2022/03/31 07:09:00;;;;;;;5.55;3.28;;;;;;;;;;5052257;28;20127;-70
2022/03/31 07:11:27;;;;;;;6.65;5.13;;;;;;;;;;5052406;28;20049;-70
2022/03/31 07:13:53;;;;;;;10.18;7.63;;;;;;;;;;5052026;28;20504;-70
2022/03/31 07:16:19;;;;;;;5.78;4.97;;;;;;;;;;5052380;28;20092;-70
2022/03/31 07:18:47;;;;;;;4.50;3.58;;;;;;;;;;5052188;28;20053;-71
2022/03/31 07:21:14;;;;;;;6.60;4.57;;;;;;;;;;5052239;28;20118;-70
2022/03/31 07:23:40;;;;;;;5.30;3.80;;;;;;;;;;5051898;28;20497;-70
2022/03/31 07:26:07;;;;;;;4.13;2.95;;;;;;;;;;5052171;28;20410;-70
2022/03/31 07:28:33;;;;;;;5.72;3.22;;;;;;;;;;5051898;28;20485;-70
2022/03/31 07:31:00;;;;;;;3.88;2.85;;;;;;;;;;5052154;28;20080;-70
2022/03/31 07:33:26;;;;;;;3.40;2.60;;;;;;;;;;5052001;28;20072;-70
2022/03/31 07:35:53;;;;;;;3.28;2.97;;;;;;;;;;5051647;28;20084;-70
2022/03/31 07:38:19;;;;;;;4.05;3.67;;;;;;;;;;5052025;28;20135;-70
2022/03/31 07:40:46;;;;;;;3.53;2.60;;;;;;;;;;5051751;28;20049;-70
2022/03/31 07:43:12;;;;;;;3.88;3.15;;;;;;;;;;5051245;28;20446;-70
2022/03/31 07:45:39;;;;;;;4.78;2.65;;;;;;;;;;5050266;28;20520;-71
2022/03/31 07:48:07;;;;;;;3.45;2.90;;;;;;;;;;5051806;28;20080;-71
2022/03/31 07:50:34;;;;;;;;;;;;;;;;;;5052221;28;20103;-71
2022/03/31 07:53:01;;;;;;;2.40;2.10;;;;;;;;;;5051479;28;19921;-71
2022/03/31 07:55:28;;;;;;;2.47;2.28;;;;;;;;;;5051519;28;20090;-71
2022/03/31 07:57:54;;;;;;;2.00;1.90;;;;;;;;;;5051556;28;20470;-71
2022/03/31 08:00:21;;;;;;;2.28;2.08;;;;;;;;;;5051799;28;20081;-71
2022/03/31 08:02:49;;;;;;;4.15;2.53;;;;;;;;;;5051686;28;20771;-71
2022/03/31 08:05:16;;;;;;;3.25;2.28;;;;;;;;;;5051616;28;20053;-70
2022/03/31 08:07:43;;;;;;;3.60;2.42;;;;;;;;;;5051690;28;20071;-70
2022/03/31 08:10:10;;;;;;;3.97;1.90;;;;;;;;;;5051425;28;20527;-71
2022/03/31 08:12:36;;;;;;;4.43;2.33;;;;;;;;;;5051325;28;20390;-70
2022/03/31 08:15:03;;;;;;;3.50;2.40;;;;;;;;;;5051313;28;20071;-71
2022/03/31 08:17:30;;;;;;;2.72;2.47;;;;;;;;;;5051369;28;20107;-70
2022/03/31 08:19:57;;;;;;;6.22;4.68;;;;;;;;;;5051487;28;20103;-71
2022/03/31 08:22:24;;;;;;;3.57;2.30;;;;;;;;;;5051293;28;20053;-70
2022/03/31 08:24:50;;;;;;;2.58;2.35;;;;;;;;;;5051193;28;20551;-71
2022/03/31 08:27:16;;;;;;;3.10;2.75;;;;;;;;;;5051123;28;20106;-71
2022/03/31 08:29:43;;;;;;;3.35;2.80;;;;;;;;;;5051693;28;20136;-71
2022/03/31 08:32:10;;;;;;;2.90;2.60;;;;;;;;;;5051433;28;20041;-70
2022/03/31 08:34:37;;;;;;;3.20;2.65;;;;;;;;;;5049849;28;20500;-71
2022/03/31 08:37:03;;;;;;;2.70;2.20;;;;;;;;;;5051078;28;20500;-70
2022/03/31 08:39:29;;;;;;;2.55;2.35;;;;;;;;;;5051432;28;20076;-70
2022/03/31 08:41:56;;;;;;;3.10;2.10;;;;;;;;;;5050988;28;20088;-70
2022/03/31 08:44:23;;;;;;;3.05;2.22;;;;;;;;;;5050057;28;20161;-70
2022/03/31 08:46:50;;;;;;;3.60;2.80;;;;;;;;;;5051015;28;20080;-70
2022/03/31 08:49:16;;;;;;;4.10;3.20;;;;;;;;;;5051066;28;20473;-70
2022/03/31 08:51:43;;;;;;;3.65;2.10;;;;;;;;;;5049984;28;20081;-70
2022/03/31 08:54:10;;;;;;;2.47;2.28;;;;;;;;;;5051199;28;20119;-70
2022/03/31 08:56:37;;;;;;;3.70;2.25;;;;;;;;;;5055070;28;20076;-70
2022/03/31 08:59:24;;;;;;;2.33;1.63;;;;;;;;;;5054827;28;20412;-70
2022/03/31 09:01:51;;;;;;;2.20;2.00;;;;;;;;;;5054866;28;20119;-70
2022/03/31 09:04:20;;;;;;;2.40;2.20;;;;;;;;;;5053568;28;20056;-71
2022/03/31 09:07:03;;;;;;;3.88;2.10;;;;;;;;;;5054458;28;20077;-70
2022/03/31 09:09:29;;;;;;;2.10;1.90;;;;;;;;;;5054741;28;20132;-70
2022/03/31 09:11:56;;;;;;;2.45;2.25;;;;;;;;;;5054741;28;20103;-70
2022/03/31 09:14:43;;;;;;;1.92;1.70;;;;;;;;;;5054573;28;20043;-70
2022/03/31 09:17:13;;;;;;;5.07;2.63;;;;;;;;;;5053147;28;20102;-70
2022/03/31 09:19:40;;;;;;;4.03;2.85;;;;;;;;;;5054199;28;20531;-70
2022/03/31 09:22:07;;;;;;;3.70;2.53;;;;;;;;;;5054283;28;20091;-70
2022/03/31 09:24:34;;;;;;;2.13;1.92;;;;;;;;;;5054148;28;20088;-70
2022/03/31 09:27:01;;;;;;;2.30;2.10;;;;;;;;;;5054324;28;20454;-70
2022/03/31 09:29:28;;;;;;;3.97;2.95;;;;;;;;;;5054389;28;20041;-70
2022/03/31 09:32:13;;;;;;;4.68;2.80;;;;;;;;;;5054344;28;20079;-70
2022/03/31 09:34:41;;;;;;;4.65;2.85;;;;;;;;;;5053850;28;20061;-70
2022/03/31 09:37:08;;;;;;;3.70;2.78;;;;;;;;;;5053989;28;20092;-70
2022/03/31 09:39:35;;;;;;;4.78;2.67;;;;;;;;;;5054180;28;20083;-70
2022/03/31 09:42:01;;;;;;;3.28;2.97;;;;;;;;;;5053777;28;20080;-70
2022/03/31 09:44:29;;;;;;;4.22;2.70;;;;;;;;;;5054124;28;20088;-70
2022/03/31 09:46:55;;;;;;;4.68;2.70;;;;;;;;;;5053973;28;20080;-70
2022/03/31 09:49:24;;;;;;;3.22;2.60;;;;;;;;;;5053685;28;20040;-70
2022/03/31 09:51:50;;;;;;;;;;;;;;;;;;5054320;28;20131;-70
2022/03/31 09:54:17;;;;;;;3.13;2.60;;;;;;;;;;5053537;28;20343;-70
2022/03/31 09:56:44;;;;;;;4.70;2.72;;;;;;;;;;5053948;28;20128;-70
2022/03/31 09:59:11;;;;;;;3.70;2.38;;;;;;;;;;5053703;28;20053;-70
2022/03/31 10:01:48;;;;;;;4.32;2.75;;;;;;;;;;5053654;28;20061;-70
2022/03/31 10:04:14;;;;;;;6.93;2.90;;;;;;;;;;5053717;28;20052;-70
2022/03/31 10:06:41;;;;;;;3.47;2.03;;;;;;;;;;5052810;28;20102;-70
2022/03/31 10:09:09;;;;;;;4.83;2.53;;;;;;;;;;5053618;28;20041;-70
2022/03/31 10:11:44;;;;;;;5.28;3.30;;;;;;;;;;5053721;28;20080;-70
2022/03/31 10:14:30;;;;;;;4.30;2.50;;;;;;;;;;5052356;28;20092;-70
2022/03/31 10:16:58;;;;;;;5.50;2.80;;;;;;;;;;5053384;28;20409;-70
2022/03/31 10:19:36;;;;;;;2.53;2.30;;;;;;;;;;5052196;28;20098;-71
2022/03/31 10:24:58;;;;;;;3.10;2.80;;;;;;;;;;5053226;28;20076;-70
2022/03/31 10:27:26;;;;;;;4.75;2.75;;;;;;;;;;5053165;28;20151;-70
2022/03/31 10:29:53;;;;;;;2.45;2.25;;;;;;;;;;5053234;28;20077;-70
2022/03/31 10:32:23;;;;;;;4.78;2.80;;;;;;;;;;5052895;28;20076;-71
2022/03/31 10:34:51;;;;;;;4.07;3.53;;;;;;;;;;5052653;28;20095;-71
2022/03/31 10:37:18;;;;;;;;;;;;;;;;;;5053441;28;20083;-71
2022/03/31 10:39:52;;;;;;;6.03;5.07;;;;;;;;;;5051790;28;19964;-71
2022/03/31 10:42:18;;;;;;;5.43;4.70;;;;;;;;;;5052909;28;20352;-71
2022/03/31 10:44:45;;;;;;;6.40;5.30;;;;;;;;;;5053002;28;20131;-71
2022/03/31 10:47:11;;;;;;;5.05;4.50;;;;;;;;;;5052448;28;20111;-70
2022/03/31 10:49:38;;;;;;;7.20;4.85;;;;;;;;;;5052622;28;20124;-70
2022/03/31 10:52:12;;;;;;;5.72;4.38;;;;;;;;;;5052468;28;20079;-70
2022/03/31 10:54:38;;;;;;;6.22;4.43;;;;;;;;;;5052481;28;20076;-70
2022/03/31 10:57:09;;;;;;;5.47;4.00;;;;;;;;;;5052515;28;20076;-70
2022/03/31 10:59:36;;;;;;;4.28;3.83;;;;;;;;;;5052347;28;20637;-71
2022/03/31 11:02:15;;;;;;;5.72;3.97;;;;;;;;;;5052366;28;20079;-71
2022/03/31 11:04:47;;;;;;;4.22;3.35;;;;;;;;;;5052670;28;20106;-71
2022/03/31 11:07:16;;;;;;;4.00;3.38;;;;;;;;;;5052516;28;20087;-71
2022/03/31 11:09:43;;;;;;;3.42;3.10;;;;;;;;;;5052212;28;20045;-71
2022/03/31 11:12:27;;;;;;;6.47;3.13;;;;;;;;;;5052442;28;20080;-71
2022/03/31 11:15:00;;;;;;;3.25;2.90;;;;;;;;;;5052359;28;20405;-71
2022/03/31 11:17:28;;;;;;;3.75;2.95;;;;;;;;;;5052012;28;20555;-71
2022/03/31 11:19:55;;;;;;;;;;;;;;;;;;5052498;28;20076;-71
2022/03/31 11:22:21;;;;;;;;;;;;;;;;;;5052437;28;19920;-71
2022/03/31 11:24:50;;;;;;;4.05;2.75;;;;;;;;;;5052111;28;19924;-71
2022/03/31 11:27:28;;;;;;;2.70;2.50;;;;;;;;;;5052353;28;20052;-71
2022/03/31 11:29:58;;;;;;;2.42;2.22;;;;;;;;;;5052039;28;20069;-71
2022/03/31 11:32:31;;;;;;;2.70;2.38;;;;;;;;;;5051877;28;20088;-70
2022/03/31 11:34:58;;;;;;;5.03;2.67;;;;;;;;;;5051838;28;20057;-70
2022/03/31 11:37:24;;;;;;;4.15;1.73;;;;;;;;;;5052060;28;20076;-70
2022/03/31 11:39:51;;;;;;;2.40;2.00;;;;;;;;;;5051765;28;20077;-71
2022/03/31 11:42:21;;;;;;;4.25;2.00;;;;;;;;;;5051920;28;20086;-71
2022/03/31 11:44:47;;;;;;;4.27;2.30;;;;;;;;;;5052007;28;20084;-71
2022/03/31 11:47:18;;;;;;;2.97;1.80;;;;;;;;;;5051523;28;20084;-71
2022/03/31 11:49:55;;;;;;;3.30;2.40;;;;;;;;;;5051837;28;20107;-70
2022/03/31 11:52:27;;;;;;;3.17;2.58;;;;;;;;;;5051748;28;20040;-70
2022/03/31 11:54:58;;;;;;;3.72;3.00;;;;;;;;;;5051576;28;20081;-70
2022/03/31 11:57:25;;;;;;;4.45;3.30;;;;;;;;;;5051582;28;20080;-71
2022/03/31 11:59:51;;;;;;;4.35;3.20;;;;;;;;;;5050598;28;20122;-70
2022/03/31 12:02:18;;;;;;;4.45;2.88;;;;;;;;;;5051397;28;20087;-70
2022/03/31 12:04:45;;;;;;;4.13;2.80;;;;;;;;;;5050497;28;20093;-71
2022/03/31 12:07:12;;;;;;;4.95;2.35;;;;;;;;;;5051624;28;20049;-71
2022/03/31 12:09:41;;;;;;;3.13;2.00;;;;;;;;;;5051702;28;20096;-71
2022/03/31 12:12:11;;;;;;;3.10;2.22;;;;;;;;;;5050439;28;20048;-70
2022/03/31 12:14:38;;;;;;;3.97;2.55;;;;;;;;;;5051555;28;20072;-70
2022/03/31 12:17:05;;;;;;;3.42;1.90;;;;;;;;;;5051551;28;20093;-70
2022/03/31 12:19:41;;;;;;;3.33;1.90;;;;;;;;;;5051308;28;20135;-71
2022/03/31 12:22:09;;;;;;;3.10;2.20;;;;;;;;;;5051608;28;20053;-70
2022/03/31 12:24:35;;;;;;;;;;;;;;;;;;5051961;28;20481;-71
2022/03/31 12:27:06;;;;;;;4.85;1.90;;;;;;;;;;5051506;28;19924;-71
2022/03/31 12:29:33;;;;;;;3.92;2.15;;;;;;;;;;5052039;28;20080;-71
2022/03/31 12:31:59;;;;;;;6.13;2.57;;;;;;;;;;5055448;28;20128;-71
2022/03/31 12:34:26;;;;;;;4.15;1.98;;;;;;;;;;5055566;28;20049;-71
2022/03/31 12:36:53;;;;;;;3.05;1.50;;;;;;;;;;5055122;28;20509;-71
2022/03/31 12:39:20;;;;;;;2.85;1.33;;;;;;;;;;5055096;28;20494;-71
2022/03/31 12:41:51;;;;;;;2.88;1.20;;;;;;;;;;5054082;28;20060;-71
2022/03/31 12:44:21;;;;;;;3.53;1.00;;;;;;;;;;5054929;28;20517;-71
2022/03/31 12:46:58;;;;;;;4.40;2.20;;;;;;;;;;5055139;28;20090;-71
2022/03/31 12:49:26;;;;;;;2.47;1.80;;;;;;;;;;5054951;28;20045;-70
2022/03/31 12:51:54;;;;;;;2.47;1.88;;;;;;;;;;5055114;28;20048;-70
2022/03/31 12:54:20;;;;;;;18.38;9.32;;;;;;;;;;5053458;28;20072;-70
2022/03/31 12:56:48;;;;;;;2.47;1.88;;;;;;;;;;5055003;28;20049;-70
2022/03/31 12:59:15;;;;;;;1.98;1.65;;;;;;;;;;5053688;28;20488;-71
2022/03/31 13:01:41;;;;;;;4.85;2.17;;;;;;;;;;5054729;28;20135;-71
2022/03/31 13:04:09;;;;;;;4.30;2.35;;;;;;;;;;5054873;28;20091;-71
2022/03/31 13:06:39;;;;;;;2.45;1.95;;;;;;;;;;5053532;28;20088;-71
2022/03/31 13:09:05;;;;;;;3.10;1.83;;;;;;;;;;5054800;28;20095;-71
2022/03/31 13:11:32;;;;;;;3.45;2.13;;;;;;;;;;5054859;28;20084;-71
2022/03/31 13:13:59;;;;;;;4.65;2.60;;;;;;;;;;5054652;28;20045;-71
2022/03/31 13:16:27;;;;;;;2.60;1.60;;;;;;;;;;5054364;28;20045;-71
2022/03/31 13:18:54;;;;;;;3.10;2.53;;;;;;;;;;5053100;28;20053;-71
2022/03/31 13:21:20;;;;;;;4.38;2.30;;;;;;;;;;5054534;28;20049;-70
2022/03/31 13:23:47;;;;;;;3.47;2.80;;;;;;;;;;5054311;28;20128;-71
2022/03/31 13:26:13;;;;;;;5.43;4.07;;;;;;;;;;5054329;28;20060;-71
2022/03/31 13:28:40;;;;;;;2.25;1.90;;;;;;;;;;5054337;28;20080;-71
2022/03/31 13:31:07;;;;;;;2.95;1.42;;;;;;;;;;5054088;28;20504;-71
2022/03/31 13:33:33;;;;;;;1.88;1.50;;;;;;;;;;5054279;28;20103;-70
2022/03/31 13:36:00;;;;;;;1.83;1.00;;;;;;;;;;5053896;28;20187;-70
2022/03/31 13:38:31;;;;;;;1.75;0.90;;;;;;;;;;5053972;28;20056;-71
2022/03/31 13:40:58;;;;;;;2.03;0.73;;;;;;;;;;5053343;28;20083;-71
2022/03/31 13:43:25;;;;;;;1.45;1.00;;;;;;;;;;5052760;28;20144;-71
2022/03/31 13:45:51;;;;;;;2.08;1.00;;;;;;;;;;5054115;28;20484;-71
2022/03/31 13:48:18;;;;;;;1.52;0.95;;;;;;;;;;5053898;28;20049;-71
2022/03/31 13:50:45;;;;;;;2.88;1.08;;;;;;;;;;5053692;28;20084;-72
2022/03/31 13:55:57;;;;;;;2.20;0.68;;;;;;;;;;5054083;28;20049;-71
2022/03/31 14:01:12;;;;;;;2.15;0.80;;;;;;;;;;5053525;28;20091;-71
2022/03/31 14:03:39;;;;;;;2.28;0.80;;;;;;;;;;5053898;28;20111;-70
2022/03/31 14:06:06;;;;;;;2.05;1.05;;;;;;;;;;5053574;28;20048;-71
2022/03/31 14:08:34;;;;;;;1.42;0.93;;;;;;;;;;5053744;28;20128;-70
2022/03/31 14:11:04;;;;;;;2.45;1.00;;;;;;;;;;5053286;28;20049;-70
2022/03/31 14:13:32;;;;;;;2.47;1.08;;;;;;;;;;5052415;28;20049;-70
2022/03/31 14:16:02;;;;;;;2.40;0.70;;;;;;;;;;5053532;28;20076;-70
2022/03/31 14:18:32;;;;;;;1.00;0.82;;;;;;;;;;5052212;28;20049;-70
2022/03/31 14:20:59;;;;;;;0.98;0.90;;;;;;;;;;5053340;28;20103;-71
2022/03/31 14:23:25;;;;;;;0.75;0.75;;;;;;;;;;5053161;28;20088;-71
2022/03/31 14:25:58;;;;;;;2.15;0.90;;;;;;;;;;5053084;28;20144;-71
2022/03/31 14:28:26;;;;;;;2.80;0.80;;;;;;;;;;5053149;28;20041;-71
2022/03/31 14:30:52;;;;;;;1.90;0.68;;;;;;;;;;5052073;28;20053;-71
2022/03/31 14:33:27;;;;;;;1.40;0.73;;;;;;;;;;5053112;28;20428;-71
2022/03/31 14:35:54;;;;;;;2.53;0.60;;;;;;;;;;5052876;28;20143;-71
2022/03/31 14:38:25;;;;;;;1.77;0.77;;;;;;;;;;5052875;28;20088;-71
2022/03/31 14:40:53;;;;;;;3.28;0.75;;;;;;;;;;5053107;28;20082;-70
2022/03/31 14:43:20;;;;;;;;;;;;;;;;;;5052101;28;20080;-71
2022/03/31 14:45:47;;;;;;;2.85;0.80;;;;;;;;;;5052705;28;20289;-70
2022/03/31 14:48:14;;;;;;;1.17;0.75;;;;;;;;;;5052676;28;20522;-70
2022/03/31 14:50:44;;;;;;;0.77;0.77;;;;;;;;;;5051639;28;20044;-71
2022/03/31 14:53:11;;;;;;;1.42;0.98;;;;;;;;;;5050912;28;20536;-71
2022/03/31 14:55:38;;;;;;;1.50;0.70;;;;;;;;;;5052765;28;20091;-71
2022/03/31 14:58:07;;;;;;;1.40;0.95;;;;;;;;;;5052626;28;20106;-71